createdAt,value
2023-04-09T00:01:09.885Z,99.90
2023-04-09T00:03:39.102Z,99.90
2023-04-09T00:06:07.686Z,99.90
2023-04-09T00:08:36.059Z,99.90
2023-04-09T00:11:04.413Z,1.00
2023-04-09T00:13:39.361Z,1.00
2023-04-09T00:16:09.945Z,1.00
2023-04-09T00:18:38.146Z,1.00
2023-04-09T00:21:08.494Z,1.00
2023-04-09T00:23:36.587Z,1.00
2023-04-09T00:26:05.029Z,1.00
2023-04-09T00:28:33.256Z,1.00
2023-04-09T00:31:01.435Z,1.00
2023-04-09T00:33:31.421Z,1.00
2023-04-09T00:35:59.524Z,1.00
2023-04-09T00:38:27.593Z,1.00
2023-04-09T00:40:55.776Z,31.70
2023-04-09T00:43:23.815Z,1.00
2023-04-09T00:45:52.026Z,1.00
2023-04-09T00:48:20.236Z,1.00
2023-04-09T00:50:49.663Z,1.00
2023-04-09T00:53:18.243Z,1.00
2023-04-09T00:55:46.854Z,1.00
2023-04-09T00:58:15.327Z,1.00
2023-04-09T01:00:43.573Z,1.00
2023-04-09T01:03:11.952Z,1.00
2023-04-09T01:05:48.182Z,1.00
2023-04-09T01:08:33.076Z,1.00
2023-04-09T01:11:09.811Z,56.00
2023-04-09T01:13:44.085Z,1.00
2023-04-09T01:16:15.801Z,48.90
2023-04-09T01:18:50.489Z,9.80
2023-04-09T01:21:21.410Z,14.60
2023-04-09T01:24:00.786Z,1.00
2023-04-09T01:26:42.412Z,46.30
2023-04-09T01:29:12.367Z,99.90
2023-04-09T01:31:43.734Z,67.80
2023-04-09T01:34:12.678Z,99.90
2023-04-09T01:36:42.986Z,99.90
2023-04-09T01:39:11.217Z,99.90
2023-04-09T01:41:41.052Z,98.80
2023-04-09T01:44:10.628Z,47.00
2023-04-09T01:46:41.394Z,99.90
2023-04-09T01:49:11.118Z,99.90
2023-04-09T01:51:39.458Z,99.90
2023-04-09T01:54:07.608Z,99.90
2023-04-09T01:56:42.850Z,99.90
2023-04-09T01:59:11.343Z,99.90
2023-04-09T02:01:46.490Z,1.00
2023-04-09T02:04:21.049Z,99.90
2023-04-09T02:06:58.565Z,99.90
2023-04-09T02:09:30.650Z,99.90
2023-04-09T02:12:02.465Z,99.90
2023-04-09T02:14:32.613Z,99.90
2023-04-09T02:17:03.108Z,99.90
2023-04-09T02:19:40.722Z,99.90
2023-04-09T02:22:08.806Z,1.00
2023-04-09T02:24:37.390Z,1.00
2023-04-09T02:27:06.177Z,1.00
2023-04-09T02:29:34.558Z,1.00
2023-04-09T02:32:03.993Z,1.00
2023-04-09T02:34:32.224Z,1.00
2023-04-09T02:37:00.423Z,1.00
2023-04-09T02:39:28.511Z,1.00
2023-04-09T02:41:57.928Z,99.90
2023-04-09T02:44:26.132Z,37.80
2023-04-09T02:46:54.186Z,1.00
2023-04-09T02:49:23.567Z,1.00
2023-04-09T02:51:51.645Z,42.10
2023-04-09T02:54:19.667Z,30.90
2023-04-09T02:56:47.668Z,26.00
2023-04-09T02:59:16.333Z,99.90
2023-04-09T03:01:44.569Z,99.90
2023-04-09T03:04:12.882Z,99.90
2023-04-09T03:06:42.309Z,99.90
2023-04-09T03:09:10.477Z,99.90
2023-04-09T03:11:38.505Z,99.90
2023-04-09T03:14:06.551Z,99.90
2023-04-09T03:16:34.607Z,99.90
2023-04-09T03:19:02.947Z,1.00
2023-04-09T03:21:32.015Z,99.90
2023-04-09T03:24:02.266Z,99.90
2023-04-09T03:26:36.090Z,99.90
2023-04-09T03:29:04.341Z,99.90
2023-04-09T03:31:32.664Z,99.90
2023-04-09T03:34:00.794Z,99.90
2023-04-09T03:36:28.992Z,99.90
2023-04-09T03:38:57.074Z,99.90
2023-04-09T03:41:27.443Z,99.90
2023-04-09T03:43:55.506Z,99.90
2023-04-09T03:46:23.610Z,58.20
2023-04-09T03:48:52.019Z,56.40
2023-04-09T03:51:20.415Z,99.90
2023-04-09T03:53:48.416Z,74.60
2023-04-09T03:56:16.544Z,99.90
2023-04-09T03:58:46.116Z,99.90
2023-04-09T04:01:14.240Z,99.90
2023-04-09T04:03:42.619Z,99.90
2023-04-09T04:06:10.742Z,99.90
2023-04-09T04:08:38.899Z,99.90
2023-04-09T04:11:07.033Z,99.90
2023-04-09T04:13:35.119Z,99.90
2023-04-09T04:16:08.684Z,99.90
2023-04-09T04:18:36.869Z,99.90
2023-04-09T04:21:05.312Z,99.90
2023-04-09T04:23:34.890Z,99.90
2023-04-09T04:26:03.452Z,99.90
2023-04-09T04:28:31.565Z,1.00
2023-04-09T04:30:59.715Z,1.00
2023-04-09T04:33:29.095Z,1.00
2023-04-09T04:36:06.502Z,99.90
2023-04-09T04:38:34.761Z,1.00
2023-04-09T04:41:02.965Z,99.90
2023-04-09T04:43:31.078Z,1.00
2023-04-09T04:45:59.371Z,1.00
2023-04-09T04:48:30.944Z,1.00
2023-04-09T04:51:00.591Z,1.00
2023-04-09T04:53:29.213Z,1.00
2023-04-09T04:55:57.226Z,1.00
2023-04-09T04:58:26.191Z,1.00
2023-04-09T05:00:54.230Z,1.00
2023-04-09T05:03:23.122Z,1.00
2023-04-09T05:05:53.046Z,44.60
2023-04-09T05:08:21.374Z,99.90
2023-04-09T05:10:49.549Z,99.90
2023-04-09T05:13:17.779Z,99.90
2023-04-09T05:15:45.871Z,99.90
2023-04-09T05:18:14.067Z,99.90
2023-04-09T05:20:42.134Z,99.90
2023-04-09T05:23:12.647Z,99.90
2023-04-09T05:25:40.906Z,99.90
2023-04-09T05:28:11.174Z,99.90
2023-04-09T05:30:39.397Z,99.90
2023-04-09T05:33:07.466Z,99.90
2023-04-09T05:35:39.285Z,1.00
2023-04-09T05:38:07.597Z,1.00
2023-04-09T05:40:37.154Z,1.00
2023-04-09T05:43:05.609Z,99.90
2023-04-09T05:45:33.609Z,99.90
2023-04-09T05:48:01.899Z,99.90
2023-04-09T05:50:29.974Z,99.90
2023-04-09T05:52:58.017Z,1.00
2023-04-09T05:55:26.233Z,99.90
2023-04-09T05:57:55.960Z,99.90
2023-04-09T06:00:24.252Z,99.90
2023-04-09T06:02:52.540Z,99.90
2023-04-09T06:05:20.660Z,99.90
2023-04-09T06:07:48.800Z,99.90
2023-04-09T06:10:16.881Z,99.90
2023-04-09T06:12:45.254Z,99.90
2023-04-09T06:15:14.699Z,1.00
2023-04-09T06:17:42.834Z,1.00
2023-04-09T06:20:11.722Z,97.20
2023-04-09T06:22:39.829Z,1.00
2023-04-09T06:25:08.641Z,39.00
2023-04-09T06:27:36.740Z,1.00
2023-04-09T06:30:05.329Z,99.90
2023-04-09T06:32:46.968Z,99.90
2023-04-09T06:35:19.445Z,99.90
2023-04-09T06:37:47.571Z,53.70
2023-04-09T06:40:16.198Z,1.00
2023-04-09T06:42:44.285Z,1.00
2023-04-09T06:45:12.834Z,1.00
2023-04-09T06:47:42.514Z,1.00
2023-04-09T06:50:11.100Z,1.00
2023-04-09T06:52:39.185Z,99.90
2023-04-09T06:55:07.932Z,99.90
2023-04-09T06:57:36.011Z,99.90
2023-04-09T07:00:04.603Z,99.90
2023-04-09T07:02:33.141Z,99.90
2023-04-09T07:05:03.136Z,99.90
2023-04-09T07:07:31.714Z,99.90
2023-04-09T07:09:59.842Z,99.90
2023-04-09T07:12:29.013Z,99.90
2023-04-09T07:14:59.278Z,99.90
2023-04-09T07:17:27.442Z,99.90
2023-04-09T07:19:55.605Z,99.90
2023-04-09T07:22:27.777Z,99.90
2023-04-09T07:24:56.510Z,99.90
2023-04-09T07:27:26.570Z,99.90
2023-04-09T07:29:56.779Z,99.90
2023-04-09T07:32:25.501Z,99.90
2023-04-09T07:34:54.445Z,99.90
2023-04-09T07:37:24.138Z,99.90
2023-04-09T07:39:52.516Z,99.90
2023-04-09T07:42:20.800Z,99.90
2023-04-09T07:44:48.883Z,99.90
2023-04-09T07:47:17.231Z,99.90
2023-04-09T07:49:45.484Z,99.90
2023-04-09T07:52:13.803Z,99.90
2023-04-09T07:54:43.490Z,99.90
2023-04-09T07:57:11.728Z,99.90
2023-04-09T07:59:39.891Z,99.90
2023-04-09T08:02:08.937Z,99.90
2023-04-09T08:04:37.575Z,99.90
2023-04-09T08:07:05.886Z,99.90
2023-04-09T08:09:35.488Z,99.90
2023-04-09T08:12:05.434Z,99.90
2023-04-09T08:14:33.786Z,99.90
2023-04-09T08:17:02.389Z,99.90
2023-04-09T08:19:30.684Z,99.90
2023-04-09T08:21:58.880Z,99.90
2023-04-09T08:24:27.498Z,99.90
2023-04-09T08:26:56.698Z,99.90
2023-04-09T08:29:26.335Z,99.90
2023-04-09T08:31:54.609Z,99.90
2023-04-09T08:34:22.718Z,99.90
2023-04-09T08:36:51.329Z,99.90
2023-04-09T08:39:20.790Z,99.90
2023-04-09T08:41:52.063Z,99.90
2023-04-09T08:44:28.826Z,99.90
2023-04-09T08:46:58.479Z,99.90
2023-04-09T08:49:29.768Z,99.90
2023-04-09T08:51:59.983Z,99.90
2023-04-09T08:54:28.500Z,99.90
2023-04-09T08:56:57.705Z,99.90
2023-04-09T08:59:30.351Z,99.90
2023-04-09T09:02:10.558Z,99.90
2023-04-09T09:04:53.702Z,99.90
2023-04-09T09:07:22.060Z,99.20
2023-04-09T09:09:54.414Z,99.90
2023-04-09T09:12:36.504Z,99.90
2023-04-09T09:15:07.721Z,99.90
2023-04-09T09:17:54.192Z,99.90
2023-04-09T09:20:23.780Z,98.00
2023-04-09T09:22:54.701Z,98.20
2023-04-09T09:25:25.674Z,99.90
2023-04-09T09:27:55.016Z,99.90
2023-04-09T09:30:26.460Z,99.90
2023-04-09T09:32:55.680Z,99.90
2023-04-09T09:35:23.932Z,99.90
2023-04-09T09:38:04.204Z,99.90
2023-04-09T09:40:32.641Z,99.90
2023-04-09T09:43:00.701Z,99.90
2023-04-09T09:45:31.486Z,99.90
2023-04-09T09:47:59.707Z,99.90
2023-04-09T09:50:31.750Z,99.90
2023-04-09T09:53:04.568Z,99.90
2023-04-09T09:55:33.649Z,99.90
2023-04-09T09:58:04.946Z,99.90
2023-04-09T10:00:36.788Z,99.90
2023-04-09T10:03:15.390Z,99.90
2023-04-09T10:05:43.960Z,99.90
2023-04-09T10:08:13.444Z,99.90
2023-04-09T10:10:43.471Z,99.50
2023-04-09T10:13:21.298Z,99.60
2023-04-09T10:15:51.988Z,99.90
2023-04-09T10:18:21.268Z,99.90
2023-04-09T10:20:56.219Z,99.90
2023-04-09T10:23:33.803Z,99.90
2023-04-09T10:26:02.989Z,99.90
2023-04-09T10:28:32.178Z,99.90
2023-04-09T10:31:02.733Z,98.10
2023-04-09T10:33:31.064Z,99.90
2023-04-09T10:36:02.334Z,99.90
2023-04-09T10:38:38.510Z,99.90
2023-04-09T10:41:16.578Z,97.40
2023-04-09T10:43:48.001Z,97.10
2023-04-09T10:46:32.059Z,92.30
2023-04-09T10:49:11.366Z,91.50
2023-04-09T10:51:40.451Z,95.90
2023-04-09T10:54:45.772Z,96.70
2023-04-09T10:57:19.202Z,97.10
2023-04-09T10:59:48.971Z,99.90
2023-04-09T11:03:02.419Z,99.40
2023-04-09T11:05:34.181Z,97.50
2023-04-09T11:08:08.204Z,97.10
2023-04-09T11:10:37.460Z,97.40
2023-04-09T11:13:06.287Z,95.00
2023-04-09T11:15:36.995Z,93.40
2023-04-09T11:18:09.619Z,95.20
2023-04-09T11:20:37.831Z,97.40
2023-04-09T11:23:07.004Z,94.70
2023-04-09T11:25:36.270Z,94.60
2023-04-09T11:28:06.773Z,92.80
2023-04-09T11:30:35.639Z,75.50
2023-04-09T11:33:04.254Z,71.20
2023-04-09T11:35:36.551Z,79.30
2023-04-09T11:38:08.095Z,90.50
2023-04-09T11:40:36.173Z,91.90
2023-04-09T11:43:04.301Z,93.70
2023-04-09T11:45:33.548Z,71.40
2023-04-09T11:48:03.217Z,61.80
2023-04-09T11:50:33.390Z,59.70
2023-04-09T11:53:01.608Z,57.70
2023-04-09T11:55:31.912Z,54.80
2023-04-09T11:58:02.914Z,58.20
2023-04-09T12:00:30.980Z,55.10
2023-04-09T12:03:03.995Z,58.00
2023-04-09T12:05:35.342Z,56.80
2023-04-09T12:08:05.779Z,58.30
2023-04-09T12:10:37.011Z,58.80
2023-04-09T12:13:07.538Z,59.00
2023-04-09T12:15:37.251Z,62.40
2023-04-09T12:18:09.462Z,57.90
2023-04-09T12:20:40.745Z,63.60
2023-04-09T12:23:09.987Z,61.10
2023-04-09T12:25:39.996Z,69.10
2023-04-09T12:28:09.595Z,62.70
2023-04-09T12:30:37.637Z,56.70
2023-04-09T12:33:07.679Z,55.70
2023-04-09T12:35:38.880Z,57.10
2023-04-09T12:38:07.257Z,54.70
2023-04-09T12:40:37.034Z,56.80
2023-04-09T12:43:05.469Z,58.80
2023-04-09T12:45:33.758Z,57.00
2023-04-09T12:48:02.263Z,56.60
2023-04-09T12:50:30.727Z,82.70
2023-04-09T12:53:00.353Z,61.50
2023-04-09T12:55:29.005Z,64.30
2023-04-09T12:57:57.149Z,65.70
2023-04-09T13:00:25.451Z,64.50
2023-04-09T13:02:53.672Z,63.30
2023-04-09T13:05:21.863Z,65.10
2023-04-09T13:07:49.926Z,65.70
2023-04-09T13:10:19.516Z,63.90
2023-04-09T13:12:47.558Z,65.40
2023-04-09T13:15:15.665Z,62.00
2023-04-09T13:17:43.802Z,60.60
2023-04-09T13:20:12.679Z,56.20
2023-04-09T13:22:40.789Z,58.70
2023-04-09T13:25:09.436Z,61.70
2023-04-09T13:27:38.930Z,61.50
2023-04-09T13:30:08.314Z,58.10
2023-04-09T13:32:36.506Z,60.00
2023-04-09T13:35:04.713Z,62.20
2023-04-09T13:37:32.907Z,66.30
2023-04-09T13:40:01.045Z,65.40
2023-04-09T13:42:29.226Z,64.70
2023-04-09T13:44:58.756Z,61.20
2023-04-09T13:47:27.311Z,61.90
2023-04-09T13:49:55.528Z,55.40
2023-04-09T13:52:24.618Z,55.90
2023-04-09T13:54:54.425Z,58.50
2023-04-09T13:57:37.280Z,60.90
2023-04-09T14:00:08.581Z,61.10
2023-04-09T14:02:36.840Z,55.70
2023-04-09T14:05:05.242Z,56.10
2023-04-09T14:07:33.292Z,52.70
2023-04-09T14:10:01.411Z,49.70
2023-04-09T14:12:29.566Z,50.90
2023-04-09T14:14:57.721Z,46.90
2023-04-09T14:17:28.070Z,48.80
2023-04-09T14:19:57.913Z,55.10
2023-04-09T14:22:26.586Z,55.30
2023-04-09T14:24:54.917Z,51.40
2023-04-09T14:27:23.711Z,51.20
2023-04-09T14:29:52.587Z,49.10
2023-04-09T14:32:20.796Z,56.20
2023-04-09T14:34:50.395Z,56.80
2023-04-09T14:37:18.514Z,57.90
2023-04-09T14:39:46.730Z,53.10
2023-04-09T14:42:15.456Z,47.70
2023-04-09T14:44:43.598Z,48.40
2023-04-09T14:47:11.992Z,47.00
2023-04-09T14:49:40.203Z,45.80
2023-04-09T14:52:09.726Z,47.10
2023-04-09T14:54:37.912Z,45.70
2023-04-09T14:57:06.923Z,46.30
2023-04-09T14:59:35.287Z,46.00
2023-04-09T15:02:04.136Z,47.80
2023-04-09T15:04:32.339Z,48.80
2023-04-09T15:07:00.799Z,49.20
2023-04-09T15:09:30.428Z,45.10
2023-04-09T15:11:58.528Z,45.70
2023-04-09T15:14:30.574Z,46.90
2023-04-09T15:16:58.699Z,51.40
2023-04-09T15:19:26.846Z,53.80
2023-04-09T15:21:54.835Z,55.60
2023-04-09T15:24:22.983Z,56.10
2023-04-09T15:26:52.850Z,54.50
2023-04-09T15:29:21.012Z,54.20
2023-04-09T15:31:49.705Z,57.80
2023-04-09T15:34:17.805Z,54.50
2023-04-09T15:36:46.508Z,54.60
2023-04-09T15:39:14.988Z,52.50
2023-04-09T15:41:43.101Z,54.20
2023-04-09T15:44:12.746Z,53.90
2023-04-09T15:46:40.942Z,52.30
2023-04-09T15:49:08.999Z,47.70
2023-04-09T15:51:37.103Z,48.90
2023-04-09T15:54:05.508Z,48.50
2023-04-09T15:56:35.768Z,52.10
2023-04-09T15:59:05.385Z,47.90
2023-04-09T16:01:35.163Z,49.30
2023-04-09T16:04:03.685Z,46.20
2023-04-09T16:06:31.966Z,61.20
2023-04-09T16:09:00.135Z,47.00
2023-04-09T16:11:28.451Z,46.30
2023-04-09T16:13:57.349Z,45.80
2023-04-09T16:16:25.550Z,42.90
2023-04-09T16:18:55.212Z,44.20
2023-04-09T16:21:23.844Z,39.70
2023-04-09T16:23:52.265Z,39.50
2023-04-09T16:26:20.636Z,42.80
2023-04-09T16:28:49.489Z,44.30
2023-04-09T16:31:17.508Z,43.00
2023-04-09T16:33:45.599Z,41.60
2023-04-09T16:36:15.103Z,43.30
2023-04-09T16:38:43.204Z,41.00
2023-04-09T16:41:11.614Z,40.90
2023-04-09T16:43:39.687Z,40.50
2023-04-09T16:46:07.991Z,54.00
2023-04-09T16:48:37.184Z,37.90
2023-04-09T16:51:05.693Z,40.90
2023-04-09T16:53:37.675Z,42.00
2023-04-09T16:56:07.934Z,41.90
2023-04-09T16:58:36.161Z,42.60
2023-04-09T17:01:04.593Z,44.00
2023-04-09T17:03:32.808Z,57.30
2023-04-09T17:06:01.744Z,43.00
2023-04-09T17:08:29.929Z,41.80
2023-04-09T17:11:03.016Z,42.10
2023-04-09T17:13:32.458Z,41.80
2023-04-09T17:16:00.709Z,40.60
2023-04-09T17:18:29.325Z,41.30
2023-04-09T17:20:57.742Z,40.90
2023-04-09T17:23:26.355Z,56.20
2023-04-09T17:25:54.998Z,41.00
2023-04-09T17:28:24.923Z,41.10
2023-04-09T17:30:53.604Z,41.80
2023-04-09T17:33:22.521Z,42.20
2023-04-09T17:35:51.328Z,41.30
2023-04-09T17:38:21.586Z,41.50
2023-04-09T17:40:50.827Z,41.00
2023-04-09T17:43:19.223Z,38.50
2023-04-09T17:45:49.369Z,38.50
2023-04-09T17:48:17.911Z,38.60
2023-04-09T17:50:46.766Z,38.70
2023-04-09T17:53:14.866Z,38.00
2023-04-09T17:55:48.175Z,37.40
2023-04-09T17:58:16.496Z,37.40
2023-04-09T18:00:44.628Z,37.50
2023-04-09T18:03:14.853Z,38.00
2023-04-09T18:05:43.325Z,37.20
2023-04-09T18:08:11.613Z,37.10
2023-04-09T18:10:39.730Z,36.60
2023-04-09T18:13:07.898Z,37.60
2023-04-09T18:15:36.339Z,37.40
2023-04-09T18:18:04.584Z,36.80
2023-04-09T18:20:34.068Z,36.30
2023-04-09T18:23:02.199Z,35.80
2023-04-09T18:25:30.363Z,36.40
2023-04-09T18:27:58.630Z,35.60
2023-04-09T18:30:26.824Z,35.90
2023-04-09T18:32:55.066Z,35.00
2023-04-09T18:35:23.147Z,35.30
2023-04-09T18:37:52.594Z,35.00
2023-04-09T18:40:20.932Z,34.90
2023-04-09T18:42:52.870Z,34.50
2023-04-09T18:45:21.292Z,33.20
2023-04-09T18:47:49.733Z,32.60
2023-04-09T18:50:18.951Z,33.90
2023-04-09T18:52:47.317Z,32.00
2023-04-09T18:55:18.254Z,32.90
2023-04-09T18:57:47.286Z,34.00
2023-04-09T19:00:16.253Z,35.70
2023-04-09T19:02:44.649Z,34.50
2023-04-09T19:05:13.328Z,33.30
2023-04-09T19:07:41.419Z,34.80
2023-04-09T19:10:11.356Z,35.00
2023-04-09T19:12:47.395Z,35.20
2023-04-09T19:15:16.163Z,35.20
2023-04-09T19:17:44.312Z,35.40
2023-04-09T19:20:13.677Z,36.00
2023-04-09T19:22:41.778Z,36.30
2023-04-09T19:25:10.556Z,36.50
2023-04-09T19:27:39.960Z,36.40
2023-04-09T19:30:09.290Z,50.70
2023-04-09T19:32:37.820Z,37.20
2023-04-09T19:35:07.150Z,37.60
2023-04-09T19:37:35.280Z,38.00
2023-04-09T19:40:04.716Z,38.80
2023-04-09T19:42:33.464Z,38.90
2023-04-09T19:45:03.129Z,38.10
2023-04-09T19:47:31.353Z,39.60
2023-04-09T19:49:59.448Z,39.00
2023-04-09T19:52:27.696Z,40.50
2023-04-09T19:54:56.335Z,40.60
2023-04-09T19:57:26.359Z,54.60
2023-04-09T19:59:55.115Z,42.00
2023-04-09T20:02:24.912Z,42.40
2023-04-09T20:04:54.424Z,42.60
2023-04-09T20:07:22.524Z,43.70
2023-04-09T20:09:50.702Z,44.00
2023-04-09T20:12:19.279Z,43.30
2023-04-09T20:14:47.377Z,44.40
2023-04-09T20:17:17.107Z,44.00
2023-04-09T20:19:46.640Z,44.40
2023-04-09T20:22:14.749Z,45.30
2023-04-09T20:24:42.868Z,44.80
2023-04-09T20:27:11.361Z,44.20
2023-04-09T20:29:39.753Z,58.80
2023-04-09T20:32:08.015Z,45.70
2023-04-09T20:34:36.210Z,46.40
2023-04-09T20:37:06.747Z,45.60
2023-04-09T20:39:34.844Z,45.50
2023-04-09T20:42:02.900Z,46.00
2023-04-09T20:44:31.725Z,46.30
2023-04-09T20:46:59.718Z,46.10
2023-04-09T20:49:27.892Z,47.50
2023-04-09T20:51:56.940Z,47.50
2023-04-09T20:54:26.480Z,47.70
2023-04-09T20:56:55.145Z,48.10
2023-04-09T20:59:23.581Z,48.70
2023-04-09T21:01:52.382Z,48.10
2023-04-09T21:04:20.874Z,48.80
2023-04-09T21:06:49.005Z,49.40
2023-04-09T21:09:17.086Z,50.10
2023-04-09T21:11:46.541Z,49.80
2023-04-09T21:14:14.851Z,49.90
2023-04-09T21:16:42.966Z,51.50
2023-04-09T21:19:11.104Z,52.30
2023-04-09T21:21:39.245Z,50.80
2023-04-09T21:24:07.412Z,51.30
2023-04-09T21:26:49.064Z,50.80
2023-04-09T21:29:21.449Z,50.90
2023-04-09T21:31:49.956Z,51.80
2023-04-09T21:34:18.099Z,52.30
2023-04-09T21:36:46.704Z,54.20
2023-04-09T21:39:14.877Z,55.20
2023-04-09T21:41:43.005Z,55.10
2023-04-09T21:44:11.061Z,55.00
2023-04-09T21:46:41.823Z,55.70
2023-04-09T21:49:10.031Z,57.00
2023-04-09T21:51:38.177Z,58.00
2023-04-09T21:54:07.218Z,58.40
2023-04-09T21:56:35.880Z,58.30
2023-04-09T21:59:05.042Z,59.50
2023-04-09T22:01:34.927Z,60.00
2023-04-09T22:04:04.939Z,62.60
2023-04-09T22:06:35.431Z,62.20
2023-04-09T22:09:04.032Z,62.40
2023-04-09T22:11:34.234Z,63.30
2023-04-09T22:14:02.385Z,64.30
2023-04-09T22:16:30.591Z,64.50
2023-04-09T22:18:58.902Z,65.90
2023-04-09T22:21:28.597Z,66.20
2023-04-09T22:23:56.858Z,69.60
2023-04-09T22:26:24.960Z,68.10
2023-04-09T22:28:53.333Z,67.00
2023-04-09T22:31:21.981Z,65.80
2023-04-09T22:33:50.167Z,67.10
2023-04-09T22:36:18.301Z,66.40
2023-04-09T22:38:47.769Z,67.90
2023-04-09T22:41:17.517Z,67.10
2023-04-09T22:43:45.703Z,69.40
2023-04-09T22:46:13.876Z,67.90
2023-04-09T22:48:44.915Z,71.30
2023-04-09T22:51:13.905Z,71.70
2023-04-09T22:53:41.960Z,71.40
2023-04-09T22:56:11.516Z,73.90
2023-04-09T22:58:40.154Z,73.80
2023-04-09T23:01:08.867Z,73.10
2023-04-09T23:03:36.974Z,74.80
2023-04-09T23:06:05.466Z,76.90
2023-04-09T23:08:33.511Z,77.80
2023-04-09T23:11:01.584Z,77.70
2023-04-09T23:13:31.077Z,78.70
2023-04-09T23:15:59.164Z,77.30
2023-04-09T23:18:27.413Z,79.50
2023-04-09T23:20:55.466Z,75.90
2023-04-09T23:23:23.597Z,79.80
2023-04-09T23:25:52.474Z,78.00
2023-04-09T23:28:20.534Z,79.70
2023-04-09T23:30:50.100Z,81.10
2023-04-09T23:33:18.134Z,81.50
2023-04-09T23:35:46.835Z,78.90
2023-04-09T23:38:15.446Z,79.50
2023-04-09T23:40:43.586Z,81.20
2023-04-09T23:43:11.683Z,82.60
2023-04-09T23:45:39.770Z,81.50
2023-04-09T23:48:09.828Z,80.80
2023-04-09T23:50:39.816Z,80.30
2023-04-09T23:53:08.048Z,79.30
2023-04-09T23:55:38.134Z,78.90
2023-04-09T23:58:06.530Z,81.60
